Time;durP1;ratioP1;P1;durP2;ratioP2;P2;SDS_P1;SDS_P2;PMS_P1;PMS_P2;Temp;Humidity;BMP_temperature;BMP_pressure;BME280_temperature;BME280_humidity;BME280_pressure;Samples;Min_cycle;Max_cycle;Signal;HPM_P1;HPM_P2
2022/09/12 00:01:59;;;;;;;7.13;6.43;;;;;;;16.00;100.00;94511.63;5152490;27;20222;-74
2022/09/12 00:04:27;;;;;;;10.00;6.63;;;;;;;15.89;100.00;94516.03;5152760;27;20202;-74
2022/09/12 00:06:54;;;;;;;7.93;7.13;;;;;;;15.81;100.00;94524.41;5139700;27;20206;-75
2022/09/12 00:09:21;;;;;;;8.27;7.40;;;;;;;15.72;100.00;94529.31;5152684;27;20198;-74
2022/09/12 00:11:49;;;;;;;9.03;7.77;;;;;;;15.61;100.00;94529.50;5139205;27;20649;-74
2022/09/12 00:14:18;;;;;;;12.63;7.90;;;;;;;15.73;100.00;94533.50;5152690;27;20199;-73
2022/09/12 00:16:45;;;;;;;12.30;8.13;;;;;;;15.79;100.00;94535.13;5150127;27;20199;-75
2022/09/12 00:19:12;;;;;;;9.10;7.57;;;;;;;15.77;100.00;94534.59;5152655;27;20202;-75
2022/09/12 00:21:40;;;;;;;9.20;7.70;;;;;;;15.67;100.00;94547.59;5151868;27;20640;-73
2022/09/12 00:24:08;;;;;;;8.47;7.40;;;;;;;15.43;100.00;94535.09;5139237;27;20206;-73
2022/09/12 00:26:34;;;;;;;8.70;7.80;;;;;;;15.32;100.00;94532.38;5152672;27;20665;-74
2022/09/12 00:29:03;;;;;;;8.13;6.77;;;;;;;15.26;100.00;94530.78;5152397;27;20221;-74
2022/09/12 00:31:30;;;;;;;7.63;6.77;;;;;;;15.27;100.00;94524.50;5139799;27;20194;-74
2022/09/12 00:34:00;;;;;;;7.63;6.83;;;;;;;15.31;100.00;94533.44;5152363;27;20203;-74
2022/09/12 00:36:28;;;;;;;8.40;6.70;;;;;;;15.34;100.00;94540.00;5152090;27;20337;-75
2022/09/12 00:38:55;;;;;;;7.47;6.40;;;;;;;15.38;100.00;94532.44;5152390;27;20198;-75
2022/09/12 00:41:25;;;;;;;8.37;7.47;;;;;;;15.44;100.00;94532.22;5152425;27;20283;-75
2022/09/12 00:43:53;;;;;;;10.50;6.90;;;;;;;15.36;100.00;94530.06;5152016;27;20672;-74
2022/09/12 00:46:29;;;;;;;9.33;7.33;;;;;;;15.38;100.00;94530.63;5152418;27;20198;-75
2022/09/12 00:48:59;;;;;;;8.20;6.63;;;;;;;15.50;100.00;94533.09;5148079;27;20226;-74
2022/09/12 00:51:32;;;;;;;9.87;6.10;;;;;;;15.57;100.00;94531.84;5152404;27;20308;-75
2022/09/12 00:54:02;;;;;;;7.47;6.53;;;;;;;15.39;100.00;94526.16;5137744;27;20213;-75
2022/09/12 00:56:29;;;;;;;8.90;6.50;;;;;;;15.35;100.00;94523.25;5151538;27;20210;-75
2022/09/12 00:59:02;;;;;;;7.27;6.57;;;;;;;15.32;100.00;94515.91;5151974;27;20195;-75
2022/09/12 01:01:30;;;;;;;10.00;7.50;;;;;;;15.27;100.00;94519.25;5145463;27;20211;-75
2022/09/12 01:03:57;;;;;;;9.73;6.70;;;;;;;15.22;100.00;94519.22;5151486;27;20210;-75
2022/09/12 01:06:29;;;;;;;6.87;6.13;;;;;;;15.23;100.00;94512.97;5152382;27;20202;-75
2022/09/12 01:08:58;;;;;;;8.77;6.90;;;;;;;15.30;100.00;94517.97;5152047;27;20202;-75
2022/09/12 01:11:25;;;;;;;10.90;6.27;;;;;;;15.25;100.00;94515.31;5144794;27;20205;-75
2022/09/12 01:13:52;;;;;;;8.47;6.47;;;;;;;15.24;100.00;94514.50;5151575;27;20206;-76
2022/09/12 01:16:19;;;;;;;8.00;6.47;;;;;;;15.14;100.00;94524.13;5152225;27;20202;-75
2022/09/12 01:19:02;;;;;;;8.37;6.40;;;;;;;15.02;100.00;94519.03;5151814;27;20198;-75
2022/09/12 01:21:40;;;;;;;7.93;6.00;;;;;;;14.79;100.00;94519.34;5152383;27;20229;-75
2022/09/12 01:24:37;;;;;;;8.43;5.97;;;;;;;14.91;100.00;94506.13;5151576;27;20638;-75
2022/09/12 01:27:23;;;;;;;7.40;5.67;;;;;;;15.12;100.00;94511.25;5136705;27;20207;-75
2022/09/12 01:30:23;;;;;;;7.23;5.70;;;;;;;14.95;100.00;94507.22;5138038;27;20907;-75
2022/09/12 01:33:25;;;;;;;8.90;5.80;;;;;;;14.81;100.00;94513.84;5151394;27;20577;-74
2022/09/12 01:36:01;;;;;;;6.23;5.17;;;;;;;14.79;100.00;94524.59;5152227;27;20243;-75
2022/09/12 01:38:35;;;;;;;6.43;5.63;;;;;;;14.76;100.00;94517.22;5151509;27;20258;-75
2022/09/12 01:41:11;;;;;;;6.30;5.67;;;;;;;14.64;100.00;94517.38;5151092;27;20293;-75
2022/09/12 01:43:47;;;;;;;8.90;6.67;;;;;;;14.57;100.00;94508.16;5151748;27;20321;-74
2022/09/12 01:46:19;;;;;;;10.53;6.97;;;;;;;14.50;100.00;94510.94;5152046;27;20250;-75
2022/09/12 01:48:56;;;;;;;6.97;5.57;;;;;;;14.36;100.00;94509.75;5147953;27;20205;-74
2022/09/12 01:51:28;;;;;;;11.97;5.80;;;;;;;14.28;100.00;94498.91;5151770;27;20230;-74
2022/09/12 01:54:03;;;;;;;6.23;5.23;;;;;;;14.30;100.00;94494.19;5151742;27;20277;-74
2022/09/12 01:56:34;;;;;;;8.17;5.77;;;;;;;14.29;100.00;94497.84;5151922;27;20198;-74
2022/09/12 01:59:04;;;;;;;9.03;5.63;;;;;;;14.37;100.00;94510.53;5151322;27;20198;-74
2022/09/12 02:01:36;;;;;;;5.93;5.40;;;;;;;14.33;100.00;94506.81;5151666;27;20231;-73
2022/09/12 02:04:10;;;;;;;6.80;5.40;;;;;;;14.30;100.00;94508.06;5144576;27;20207;-74
2022/09/12 02:06:43;;;;;;;8.87;5.40;;;;;;;14.26;100.00;94506.19;5151471;27;20199;-74
2022/09/12 02:09:15;;;;;;;6.07;5.17;;;;;;;14.15;100.00;94505.28;5151662;27;20198;-74
2022/09/12 02:11:44;;;;;;;6.13;5.50;;;;;;;14.06;100.00;94501.50;5151295;27;20199;-73
2022/09/12 02:14:15;;;;;;;11.00;5.40;;;;;;;14.02;100.00;94501.22;5152135;27;20203;-74
2022/09/12 02:16:49;;;;;;;5.83;5.23;;;;;;;14.05;100.00;94510.38;5153583;27;20676;-75
2022/09/12 02:19:23;;;;;;;6.27;5.07;;;;;;;14.05;100.00;94513.00;5154243;27;20274;-75
2022/09/12 02:21:53;;;;;;;8.87;5.53;;;;;;;14.15;100.00;94505.28;5155228;27;20690;-74
2022/09/12 02:24:22;;;;;;;6.57;5.10;;;;;;;14.27;100.00;94505.94;5155316;27;20590;-73
2022/09/12 02:26:54;;;;;;;6.00;5.40;;;;;;;14.24;100.00;94501.19;5154809;27;20234;-73
2022/09/12 02:29:21;;;;;;;7.03;5.37;;;;;;;14.25;100.00;94502.78;5155038;27;20206;-75
2022/09/12 02:31:54;;;;;;;5.53;4.93;;;;;;;14.30;100.00;94510.69;5154707;27;20259;-73
2022/09/12 02:34:40;;;;;;;5.23;4.73;;;;;;;14.27;100.00;94505.94;5154801;27;20194;-74
2022/09/12 02:37:17;;;;;;;8.20;5.40;;;;;;;14.27;100.00;94510.38;5154741;27;20673;-74
2022/09/12 02:39:44;;;;;;;7.80;5.30;;;;;;;14.18;100.00;94507.41;5154688;27;20933;-74
2022/09/12 02:42:12;;;;;;;5.90;4.93;;;;;;;14.25;100.00;94508.03;5147639;27;20774;-74
2022/09/12 02:44:39;;;;;;;7.27;4.80;;;;;;;14.36;100.00;94506.34;5154638;27;20203;-74
2022/09/12 02:47:10;;;;;;;8.23;4.70;;;;;;;14.28;100.00;94494.47;5151113;27;20199;-75
2022/09/12 02:49:37;;;;;;;5.30;4.43;;;;;;;14.38;100.00;94499.81;5154547;27;20891;-73
2022/09/12 02:52:04;;;;;;;8.93;4.70;;;;;;;14.35;100.00;94505.53;5154184;27;20230;-74
2022/09/12 02:54:32;;;;;;;5.80;4.30;;;;;;;14.31;100.00;94512.28;5147247;27;20300;-74
2022/09/12 02:56:58;;;;;;;5.93;4.40;;;;;;;14.31;100.00;94514.09;5154401;27;20206;-73
2022/09/12 02:59:26;;;;;;;4.90;3.70;;;;;;;14.29;100.00;94510.91;5154218;27;20209;-73
2022/09/12 03:02:07;;;;;;;5.67;4.50;;;;;;;14.31;100.00;94514.09;5154431;27;20222;-74
2022/09/12 03:04:48;;;;;;;4.40;4.00;;;;;;;14.30;100.00;94518.53;5147697;27;20241;-74
2022/09/12 03:07:26;;;;;;;5.40;4.53;;;;;;;14.10;100.00;94518.28;5153513;27;20242;-74
2022/09/12 03:10:02;;;;;;;5.17;4.67;;;;;;;13.90;100.00;94510.19;5154355;27;20206;-73
2022/09/12 03:12:43;;;;;;;7.50;4.33;;;;;;;13.88;100.00;94526.09;5154444;27;20190;-73
2022/09/12 03:15:22;;;;;;;5.33;4.60;;;;;;;13.91;100.00;94528.22;5153668;27;20195;-74
2022/09/12 03:18:05;;;;;;;6.60;5.17;;;;;;;13.74;100.00;94522.25;5146374;27;20215;-74
2022/09/12 03:20:45;;;;;;;5.40;4.90;;;;;;;13.64;100.00;94522.91;5152941;27;20285;-74
2022/09/12 03:23:22;;;;;;;5.87;4.97;;;;;;;13.68;100.00;94517.97;5153211;27;20233;-75
2022/09/12 03:25:54;;;;;;;7.30;4.50;;;;;;;13.86;100.00;94522.13;5153961;27;20206;-75
2022/09/12 03:28:22;;;;;;;5.27;4.77;;;;;;;13.94;100.00;94521.75;5153632;27;20214;-75
2022/09/12 03:30:53;;;;;;;5.43;4.80;;;;;;;13.99;100.00;94520.00;5153687;27;20891;-75
2022/09/12 03:33:21;;;;;;;8.40;5.30;;;;;;;14.01;100.00;94519.72;5153936;27;20191;-74
2022/09/12 03:35:51;;;;;;;6.23;5.47;;;;;;;14.00;100.00;94510.31;5146647;27;20206;-75
2022/09/12 03:38:18;;;;;;;7.13;5.80;;;;;;;13.89;100.00;94516.44;5150535;27;20306;-75
2022/09/12 03:40:45;;;;;;;6.70;5.47;;;;;;;13.85;100.00;94515.34;5149959;27;20202;-75
2022/09/12 03:43:12;;;;;;;5.87;5.20;;;;;;;13.85;100.00;94521.34;5153349;27;20649;-76
2022/09/12 03:45:39;;;;;;;8.50;5.50;;;;;;;13.90;100.00;94518.03;5153274;27;20200;-75
2022/09/12 03:48:06;;;;;;;7.67;5.00;;;;;;;13.93;100.00;94523.56;5150078;27;20213;-75
2022/09/12 03:50:33;;;;;;;8.00;4.67;;;;;;;13.90;100.00;94521.44;5152501;27;20617;-75
2022/09/12 03:53:02;;;;;;;8.07;4.97;;;;;;;13.91;100.00;94512.53;5152569;27;20229;-74
2022/09/12 03:55:29;;;;;;;6.33;5.10;;;;;;;13.98;100.00;94520.22;5152292;27;20211;-75
2022/09/12 03:57:56;;;;;;;6.87;4.60;;;;;;;14.01;100.00;94511.91;5152784;27;20211;-75
2022/09/12 04:00:24;;;;;;;7.93;5.30;;;;;;;14.07;100.00;94519.56;5153107;27;20221;-75
2022/09/12 04:02:55;;;;;;;6.60;5.37;;;;;;;14.07;100.00;94526.59;5152502;27;20272;-75
2022/09/12 04:05:22;;;;;;;8.57;5.23;;;;;;;14.06;100.00;94525.81;5145224;27;20198;-73
2022/09/12 04:07:49;;;;;;;5.90;5.30;;;;;;;14.11;100.00;94530.31;5152253;27;20202;-74
2022/09/12 04:10:17;;;;;;;8.00;5.27;;;;;;;14.11;100.00;94535.56;5149627;27;20286;-74
2022/09/12 04:12:44;;;;;;;5.80;5.00;;;;;;;14.07;100.00;94524.78;5139483;27;20199;-72
2022/09/12 04:15:12;;;;;;;6.43;5.43;;;;;;;14.07;100.00;94537.06;5148954;27;20262;-73
2022/09/12 04:17:39;;;;;;;8.30;5.33;;;;;;;14.10;100.00;94534.75;5146549;27;20233;-73
2022/09/12 04:20:06;;;;;;;7.57;5.63;;;;;;;14.16;100.00;94538.22;5152688;27;20202;-73
2022/09/12 04:22:33;;;;;;;7.67;5.40;;;;;;;14.19;100.00;94535.91;5151969;27;20696;-72
2022/09/12 04:25:00;;;;;;;6.40;5.40;;;;;;;14.26;100.00;94537.56;5151801;27;20319;-72
2022/09/12 04:27:29;;;;;;;9.57;5.90;;;;;;;14.31;100.00;94538.41;5152344;27;20255;-72
2022/09/12 04:29:56;;;;;;;8.90;5.57;;;;;;;14.36;100.00;94543.72;5111817;27;20202;-72
2022/09/12 04:32:23;;;;;;;7.73;5.80;;;;;;;14.41;100.00;94546.41;5147223;27;20201;-72
2022/09/12 04:34:51;;;;;;;6.97;6.10;;;;;;;14.42;100.00;94547.19;5151825;27;20206;-74
2022/09/12 04:37:18;;;;;;;10.20;5.93;;;;;;;14.44;100.00;94543.28;5151424;27;20222;-74
2022/09/12 04:39:45;;;;;;;8.73;6.37;;;;;;;14.50;100.00;94546.75;5150474;27;20951;-73
2022/09/12 04:42:12;;;;;;;7.67;5.63;;;;;;;14.55;100.00;94552.03;5149333;27;20275;-73
2022/09/12 04:44:40;;;;;;;9.40;6.07;;;;;;;14.63;100.00;94552.41;5146594;27;20297;-73
2022/09/12 04:47:07;;;;;;;7.53;5.97;;;;;;;14.64;100.00;94559.22;5149230;27;20200;-73
2022/09/12 04:49:34;;;;;;;8.43;5.97;;;;;;;14.73;100.00;94559.56;5151489;27;20281;-74
2022/09/12 04:52:02;;;;;;;7.87;5.83;;;;;;;14.74;100.00;94556.72;5149006;27;20694;-73
2022/09/12 04:54:29;;;;;;;9.23;6.20;;;;;;;14.72;100.00;94553.53;5150612;27;20249;-75
2022/09/12 04:56:56;;;;;;;6.93;5.73;;;;;;;14.71;100.00;94551.19;5150894;27;20637;-73
2022/09/12 04:59:23;;;;;;;6.70;5.83;;;;;;;14.81;100.00;94555.72;5150688;27;20676;-76
2022/09/12 05:01:51;;;;;;;9.43;6.43;;;;;;;14.80;100.00;94554.94;5151726;27;20217;-75
2022/09/12 05:04:18;;;;;;;8.90;5.97;;;;;;;14.75;100.00;94560.09;5134449;27;20195;-76
2022/09/12 05:06:46;;;;;;;8.17;6.30;;;;;;;14.80;100.00;94556.78;5148760;27;20206;-76
2022/09/12 05:09:14;;;;;;;9.03;6.80;;;;;;;14.88;100.00;94553.72;5151115;27;20195;-75
2022/09/12 05:11:43;;;;;;;8.07;6.07;;;;;;;14.92;100.00;94562.66;5150721;27;20198;-79
2022/09/12 05:14:10;;;;;;;8.00;6.40;;;;;;;14.96;100.00;94555.88;5150040;27;20206;-76
2022/09/12 05:16:37;;;;;;;7.97;5.93;;;;;;;14.90;100.00;94552.44;5151093;27;20202;-76
2022/09/12 05:19:05;;;;;;;8.13;6.33;;;;;;;14.97;100.00;94554.84;5145429;27;20194;-76
2022/09/12 05:21:35;;;;;;;8.00;6.27;;;;;;;14.95;100.00;94557.69;5146103;27;20210;-75
2022/09/12 05:24:04;;;;;;;7.90;6.10;;;;;;;15.01;100.00;94563.78;5150816;27;20222;-76
2022/09/12 05:26:32;;;;;;;6.20;5.27;;;;;;;14.95;100.00;94557.69;5131557;27;20603;-77
2022/09/12 05:28:58;;;;;;;9.20;5.73;;;;;;;14.97;100.00;94562.72;5126650;27;20638;-76
2022/09/12 05:31:27;;;;;;;9.37;6.40;;;;;;;14.99;100.00;94564.03;5150532;27;20247;-76
2022/09/12 05:33:55;;;;;;;10.90;6.70;;;;;;;14.93;100.00;94562.41;5145007;27;20203;-75
2022/09/12 05:36:26;;;;;;;7.33;6.40;;;;;;;14.88;100.00;94557.13;5151174;27;20206;-75
2022/09/12 05:38:53;;;;;;;10.63;7.40;;;;;;;14.88;100.00;94558.94;5150719;27;20202;-77
2022/09/12 05:41:23;;;;;;;14.73;7.20;;;;;;;14.88;100.00;94545.88;5150584;27;20209;-78
2022/09/12 05:43:52;;;;;;;10.70;6.73;;;;;;;14.82;100.00;94549.47;5150776;27;20222;-77
2022/09/12 05:46:21;;;;;;;7.60;6.50;;;;;;;14.87;100.00;94549.50;5143141;27;20299;-75
2022/09/12 05:48:49;;;;;;;11.50;7.00;;;;;;;14.77;100.00;94544.97;5148922;27;20230;-77
2022/09/12 05:51:18;;;;;;;9.87;7.43;;;;;;;14.89;100.00;94557.91;5152525;27;20235;-75
2022/09/12 05:53:48;;;;;;;12.53;6.83;;;;;;;15.00;100.00;94549.13;5145123;27;20940;-76
2022/09/12 05:56:23;;;;;;;13.20;7.27;;;;;;;15.17;100.00;94544.56;5145427;27;20191;-77
2022/09/12 05:58:54;;;;;;;13.23;6.57;;;;;;;15.25;100.00;94539.66;5132807;27;20217;-77
2022/09/12 06:01:21;;;;;;;9.00;6.73;;;;;;;15.37;100.00;94531.66;5134867;27;20192;-80
2022/09/12 06:03:49;;;;;;;11.33;6.80;;;;;;;15.43;100.00;94530.66;5135422;27;20222;-77
2022/09/12 06:06:22;;;;;;;7.50;6.53;;;;;;;15.38;100.00;94525.38;5138245;27;20188;-77
2022/09/12 06:08:52;;;;;;;8.37;7.20;;;;;;;15.41;100.00;94524.09;5134937;27;20211;-77
2022/09/12 06:11:23;;;;;;;8.70;6.53;;;;;;;15.39;100.00;94526.94;5137153;27;20192;-76
2022/09/12 06:13:50;;;;;;;7.03;6.27;;;;;;;15.33;100.00;94527.94;5134966;27;20199;-76
2022/09/12 06:16:19;;;;;;;7.07;5.87;;;;;;;15.25;100.00;94521.34;5139048;27;20670;-76
2022/09/12 06:18:48;;;;;;;7.20;6.00;;;;;;;15.34;100.00;94532.94;5138455;27;20665;-77
2022/09/12 06:21:16;;;;;;;7.27;6.57;;;;;;;15.33;100.00;94533.19;5135159;27;20187;-78
2022/09/12 06:23:43;;;;;;;8.60;6.70;;;;;;;15.30;100.00;94536.28;5137272;27;21004;-78
2022/09/12 06:26:12;;;;;;;7.30;6.60;;;;;;;15.35;100.00;94531.13;5137077;27;20187;-80
2022/09/12 06:28:43;;;;;;;8.87;6.67;;;;;;;15.34;100.00;94537.38;5128371;27;20207;-77
2022/09/12 06:31:12;;;;;;;9.70;6.97;;;;;;;15.41;100.00;94543.19;5143856;27;20317;-76
2022/09/12 06:33:41;;;;;;;10.03;7.10;;;;;;;15.51;100.00;94545.94;5153264;27;20301;-78
2022/09/12 06:36:11;;;;;;;8.07;6.70;;;;;;;15.53;100.00;94543.03;5153451;27;20573;-76
2022/09/12 06:38:38;;;;;;;7.63;6.87;;;;;;;15.60;100.00;94547.03;5152900;27;20202;-77
2022/09/12 06:41:06;;;;;;;11.10;6.70;;;;;;;15.71;100.00;94545.28;5146450;27;20650;-77
2022/09/12 06:43:35;;;;;;;8.57;6.97;;;;;;;15.72;100.00;94549.50;5148239;27;20215;-76
2022/09/12 06:46:02;;;;;;;10.43;8.97;;;;;;;15.75;100.00;94554.22;5147783;27;20235;-77
2022/09/12 06:48:29;;;;;;;8.00;6.90;;;;;;;15.77;100.00;94542.44;5152014;27;20274;-80
2022/09/12 06:50:58;;;;;;;10.40;7.30;;;;;;;15.87;100.00;94558.22;5153860;27;20226;-78
2022/09/12 06:53:25;;;;;;;8.80;6.63;;;;;;;15.93;100.00;94569.53;5153659;27;20222;-78
2022/09/12 06:55:56;;;;;;;7.33;6.63;;;;;;;15.97;100.00;94567.19;5153921;27;20577;-73
2022/09/12 06:58:24;;;;;;;8.50;7.60;;;;;;;16.02;100.00;94559.34;5152356;27;20280;-74
2022/09/12 07:00:52;;;;;;;9.80;6.50;;;;;;;16.13;100.00;94564.41;5137786;27;20207;-76
2022/09/12 07:03:19;;;;;;;9.63;6.93;;;;;;;16.24;100.00;94562.63;5141581;27;20225;-74
2022/09/12 07:05:46;;;;;;;8.13;6.97;;;;;;;16.43;100.00;94569.81;5153376;27;20191;-74
2022/09/12 07:08:13;;;;;;;8.93;6.50;;;;;;;16.51;100.00;94567.75;5153264;27;20208;-74
2022/09/12 07:10:40;;;;;;;7.73;6.80;;;;;;;16.66;100.00;94571.25;5146085;27;20199;-70
2022/09/12 07:13:07;;;;;;;7.23;6.50;;;;;;;16.77;100.00;94569.44;5153190;27;20198;-73
2022/09/12 07:15:35;;;;;;;7.90;6.80;;;;;;;16.74;100.00;94560.25;5153829;27;20279;-72
2022/09/12 07:18:03;;;;;;;7.50;6.77;;;;;;;16.96;99.94;94571.34;5148623;27;20198;-74
2022/09/12 07:20:31;;;;;;;6.80;6.10;;;;;;;17.09;95.80;94574.50;5153154;27;20294;-72
2022/09/12 07:22:58;;;;;;;7.13;6.00;;;;;;;17.17;95.74;94580.03;5144871;27;20226;-72
2022/09/12 07:25:26;;;;;;;7.27;6.43;;;;;;;17.11;94.96;94569.78;5122951;27;20269;-71
2022/09/12 07:27:54;;;;;;;10.23;6.90;;;;;;;17.07;94.24;94561.66;5135403;27;20195;-71
2022/09/12 07:30:21;;;;;;;8.33;7.53;;;;;;;17.14;95.04;94571.91;5133238;27;20207;-71
2022/09/12 07:32:52;;;;;;;8.00;7.20;;;;;;;17.20;92.95;94576.13;5127638;27;20198;-73
2022/09/12 07:35:20;;;;;;;8.50;7.60;;;;;;;17.29;93.41;94579.78;5140378;27;20213;-71
2022/09/12 07:37:47;;;;;;;8.03;6.77;;;;;;;17.31;93.41;94577.72;5152463;27;20203;-73
2022/09/12 07:40:14;;;;;;;9.67;7.90;;;;;;;17.47;91.81;94574.81;5152490;27;20293;-78
2022/09/12 07:42:41;;;;;;;8.30;6.67;;;;;;;17.47;90.09;94563.53;5152982;27;20238;-73
2022/09/12 07:45:09;;;;;;;7.50;6.50;;;;;;;17.30;89.62;94571.66;5146452;27;20206;-73
2022/09/12 07:47:36;;;;;;;7.17;6.40;;;;;;;17.28;89.54;94576.41;5145606;27;20654;-72
2022/09/12 07:50:02;;;;;;;6.37;5.77;;;;;;;17.27;88.58;94574.00;5140220;27;20545;-69
2022/09/12 07:52:30;;;;;;;10.60;8.90;;;;;;;17.29;89.82;94556.94;5129623;27;20612;-69
2022/09/12 07:54:57;;;;;;;10.10;8.50;;;;;;;17.29;90.12;94564.81;5152213;27;20202;-68
2022/09/12 07:57:24;;;;;;;8.80;6.40;;;;;;;17.36;89.66;94573.25;5152379;27;20202;-69
2022/09/12 07:59:51;;;;;;;7.60;6.80;;;;;;;17.47;90.19;94571.41;5146308;27;20676;-71
2022/09/12 08:02:18;;;;;;;7.40;6.60;;;;;;;17.39;90.54;94572.72;5152331;27;20203;-73
2022/09/12 08:04:47;;;;;;;10.13;5.80;;;;;;;17.44;88.91;94575.34;5152446;27;20278;-70
2022/09/12 08:07:14;;;;;;;8.80;5.50;;;;;;;17.37;89.27;94574.81;5151716;27;20573;-71
2022/09/12 08:09:42;;;;;;;6.10;5.50;;;;;;;17.24;89.95;94571.91;5139021;27;20202;-72
2022/09/12 08:12:09;;;;;;;5.50;5.00;;;;;;;17.18;90.01;94570.31;5152495;27;20195;-71
2022/09/12 08:14:35;;;;;;;7.53;5.20;;;;;;;17.10;90.83;94565.59;5151297;27;20195;-73
2022/09/12 08:17:02;;;;;;;6.00;5.40;;;;;;;17.25;91.06;94571.66;5148153;27;20203;-75
2022/09/12 08:19:30;;;;;;;9.77;5.90;;;;;;;17.35;91.08;94565.59;5152397;27;20202;-73
2022/09/12 08:21:57;;;;;;;8.80;5.70;;;;;;;17.47;90.05;94574.03;5148360;27;20198;-72
2022/09/12 08:24:24;;;;;;;7.53;6.47;;;;;;;17.46;90.30;94559.34;5148435;27;20333;-70
2022/09/12 08:26:52;;;;;;;7.00;6.30;;;;;;;17.64;91.56;94566.72;5151746;27;20245;-72
2022/09/12 08:29:20;;;;;;;7.30;5.87;;;;;;;17.70;89.93;94573.53;5134813;27;20207;-77
2022/09/12 08:31:47;;;;;;;7.83;4.90;;;;;;;17.85;88.39;94578.00;5148804;27;20199;-72
2022/09/12 08:34:15;;;;;;;7.93;5.40;;;;;;;17.98;87.74;94572.97;5152038;27;20195;-70
2022/09/12 08:36:42;;;;;;;5.27;4.40;;;;;;;17.94;87.19;94571.94;5151464;27;20199;-73
2022/09/12 08:39:13;;;;;;;5.17;4.67;;;;;;;17.97;87.89;94573.25;5151317;27;20573;-73
2022/09/12 08:41:41;;;;;;;6.00;4.67;;;;;;;17.98;87.53;94572.19;5151722;27;20198;-74
2022/09/12 08:44:39;;;;;;;7.07;5.33;;;;;;;18.12;88.37;94560.09;5151547;27;20579;-72
2022/09/12 08:47:19;;;;;;;5.67;5.07;;;;;;;18.25;86.06;94563.97;5150743;27;20195;-73
2022/09/12 08:49:52;;;;;;;9.43;5.90;;;;;;;18.39;85.03;94560.53;5151437;27;20190;-72
2022/09/12 08:52:25;;;;;;;5.73;4.90;;;;;;;18.55;84.71;94563.94;5151323;27;20712;-75
2022/09/12 08:54:54;;;;;;;6.17;5.47;;;;;;;18.63;84.54;94564.16;5151912;27;20194;-72
2022/09/12 08:57:22;;;;;;;6.57;5.70;;;;;;;18.74;83.19;94566.72;5151108;27;20214;-72
2022/09/12 08:59:52;;;;;;;6.90;5.40;;;;;;;18.64;82.33;94549.16;5151194;27;20199;-72
2022/09/12 09:02:51;;;;;;;5.67;5.10;;;;;;;18.76;81.14;94549.59;5130444;27;20202;-77
2022/09/12 09:05:25;;;;;;;6.60;5.20;;;;;;;18.74;80.17;94545.66;5142497;27;20213;-79
2022/09/12 09:08:21;;;;;;;6.53;4.50;;;;;;;18.81;78.99;94546.97;5135738;27;20195;-73
2022/09/12 09:10:52;;;;;;;6.20;5.40;;;;;;;18.93;80.46;94547.41;5114455;27;20259;-74
2022/09/12 09:16:25;;;;;;;5.70;5.20;;;;;;;19.14;78.63;94556.78;5132750;27;20187;-73
2022/09/12 09:18:53;;;;;;;7.53;5.28;;;;;;;18.99;79.61;94548.19;5147270;27;20235;-72
2022/09/12 09:21:25;;;;;;;6.20;5.45;;;;;;;19.19;79.92;94551.47;5148361;27;20198;-77
2022/09/12 09:23:59;;;;;;;5.40;4.90;;;;;;;19.45;77.67;94543.44;5142501;27;20222;-70
2022/09/12 09:26:31;;;;;;;6.13;5.32;;;;;;;19.55;77.25;94553.88;5151300;27;20190;-72
2022/09/12 09:29:02;;;;;;;5.78;5.28;;;;;;;19.81;78.55;94547.34;5151373;27;20193;-72
2022/09/12 09:31:36;;;;;;;7.70;5.22;;;;;;;20.02;76.49;94545.31;5155470;27;20198;-72
2022/09/12 09:34:13;;;;;;;5.78;5.28;;;;;;;20.09;76.85;94532.56;5155301;27;20194;-73
2022/09/12 09:36:49;;;;;;;6.00;4.75;;;;;;;20.18;75.29;94539.59;5155477;27;20278;-71
2022/09/12 09:39:25;;;;;;;6.28;5.45;;;;;;;20.25;76.79;94534.00;5154342;27;20679;-73
2022/09/12 09:42:05;;;;;;;5.57;5.07;;;;;;;20.03;76.84;94541.59;5155466;27;20205;-72
2022/09/12 09:44:32;;;;;;;10.23;5.47;;;;;;;20.30;77.75;94536.59;5155596;27;20202;-72
2022/09/12 09:47:30;;;;;;;6.70;5.05;;;;;;;20.56;74.54;94539.72;5139316;27;20214;-72
2022/09/12 09:50:19;;;;;;;4.97;4.47;;;;;;;20.54;73.54;94539.22;5148842;27;20219;-73
2022/09/12 09:52:49;;;;;;;7.57;4.72;;;;;;;20.78;75.12;94529.41;5142463;27;20721;-73
2022/09/12 09:55:20;;;;;;;5.18;4.68;;;;;;;21.16;74.01;94535.50;5140860;27;20191;-72
2022/09/12 09:57:48;;;;;;;8.13;5.45;;;;;;;21.39;72.28;94535.44;5144536;27;20289;-73
2022/09/12 10:00:24;;;;;;;9.48;4.85;;;;;;;21.57;73.80;94525.13;5154406;27;20267;-72
2022/09/12 10:03:06;;;;;;;4.72;4.30;;;;;;;21.56;69.79;94528.84;5148250;27;20210;-75
2022/09/12 10:05:35;;;;;;;4.60;4.20;;;;;;;21.55;69.49;94527.28;5141419;27;20320;-70
2022/09/12 10:08:05;;;;;;;4.60;4.20;;;;;;;21.73;75.79;94539.69;5127380;27;20202;-76
2022/09/12 10:10:32;;;;;;;4.93;4.53;;;;;;;21.94;69.54;94530.34;5150562;27;20234;-74
2022/09/12 10:13:14;;;;;;;4.53;4.13;;;;;;;21.78;67.71;94534.31;5152803;27;20921;-74
2022/09/12 10:15:57;;;;;;;4.97;4.53;;;;;;;21.53;68.64;94524.91;5154490;27;20198;-72
2022/09/12 10:18:40;;;;;;;7.65;5.13;;;;;;;21.90;73.34;94532.78;5147882;27;20199;-72
2022/09/12 10:21:17;;;;;;;6.60;5.32;;;;;;;21.75;70.40;94540.16;5140095;27;20198;-73
2022/09/12 10:23:46;;;;;;;8.93;5.15;;;;;;;21.51;69.13;94529.69;5151425;27;20206;-72
2022/09/12 10:26:15;;;;;;;6.03;5.47;;;;;;;21.19;70.46;94527.81;5146255;27;20669;-75
2022/09/12 10:28:44;;;;;;;8.88;6.50;;;;;;;21.44;70.72;94519.47;5148007;27;20203;-74
2022/09/12 10:31:17;;;;;;;6.88;6.13;;;;;;;21.77;70.01;94522.91;5151377;27;20254;-78
2022/09/12 10:33:51;;;;;;;6.65;5.60;;;;;;;21.69;67.85;94528.09;5145526;27;20278;-75
2022/09/12 10:36:18;;;;;;;6.25;5.75;;;;;;;21.92;66.07;94541.22;5137985;27;20198;-77
2022/09/12 10:38:51;;;;;;;5.07;4.55;;;;;;;22.07;64.69;94521.66;5153556;27;20209;-75
2022/09/12 10:41:20;;;;;;;4.90;4.45;;;;;;;22.24;63.13;94529.00;5152988;27;20195;-75
2022/09/12 10:43:47;;;;;;;5.28;4.47;;;;;;;21.87;64.34;94533.38;5153639;27;20803;-75
2022/09/12 10:46:28;;;;;;;5.45;4.93;;;;;;;21.69;65.38;94526.25;5153901;27;20673;-76
2022/09/12 10:49:26;;;;;;;6.70;5.38;;;;;;;21.81;65.29;94523.13;5133173;27;20234;-75
2022/09/12 10:51:54;;;;;;;5.93;5.43;;;;;;;21.70;65.58;94527.03;5149173;27;20723;-73
2022/09/12 10:54:24;;;;;;;7.53;5.28;;;;;;;21.33;66.65;94533.94;5151214;27;20194;-72
2022/09/12 10:57:11;;;;;;;6.63;5.28;;;;;;;20.93;68.13;94526.56;5153455;27;20210;-73
2022/09/12 11:00:04;;;;;;;6.72;5.20;;;;;;;20.53;68.98;94543.72;5154278;27;20190;-73
2022/09/12 11:02:40;;;;;;;7.00;5.40;;;;;;;20.24;71.14;94525.28;5151268;27;20281;-78
2022/09/12 11:05:14;;;;;;;6.22;5.50;;;;;;;19.89;71.87;94509.00;5140901;27;20213;-78
2022/09/12 11:07:45;;;;;;;10.35;5.60;;;;;;;19.86;72.33;94526.19;5154095;27;20197;-75
2022/09/12 11:10:35;;;;;;;6.32;5.70;;;;;;;19.94;72.47;94522.94;5138015;27;20202;-74
2022/09/12 11:13:17;;;;;;;6.20;5.60;;;;;;;20.42;70.70;94529.06;5132598;27;20199;-75
2022/09/12 11:16:01;;;;;;;6.13;5.53;;;;;;;20.69;70.01;94533.75;5133019;27;20203;-76
2022/09/12 11:18:47;;;;;;;6.18;5.65;;;;;;;20.60;70.67;94525.69;5138756;27;20196;-76
2022/09/12 11:21:29;;;;;;;6.57;5.50;;;;;;;20.65;68.57;94535.38;5136553;27;20573;-77
2022/09/12 11:24:15;;;;;;;6.20;5.60;;;;;;;20.81;68.77;94521.69;5152048;27;20194;-78
2022/09/12 11:27:07;;;;;;;8.70;5.88;;;;;;;21.23;69.13;94534.09;5145984;27;20653;-76
2022/09/12 11:29:47;;;;;;;6.43;5.82;;;;;;;21.68;66.62;94532.59;5142784;27;20547;-78
2022/09/12 11:32:25;;;;;;;9.77;5.90;;;;;;;;;;5149469;27;20199;-77
2022/09/12 11:35:02;;;;;;;6.95;5.50;;;;;;;22.24;63.84;94544.91;5152501;27;20195;-77
2022/09/12 11:37:47;;;;;;;6.32;5.38;;;;;;;22.29;65.62;94542.94;5153356;27;20198;-76
2022/09/12 11:40:27;;;;;;;5.85;5.35;;;;;;;22.35;65.54;94528.53;5153051;27;20207;-77
2022/09/12 11:42:59;;;;;;;5.57;5.07;;;;;;;22.38;65.59;94538.53;5152262;27;20294;-77
2022/09/12 11:45:29;;;;;;;5.80;5.20;;;;;;;22.39;64.68;94532.16;5152756;27;20221;-77
2022/09/12 11:48:02;;;;;;;6.03;5.47;;;;;;;22.18;66.27;94530.97;5146361;27;20209;-77
2022/09/12 11:50:32;;;;;;;6.40;5.80;;;;;;;22.44;66.80;94515.38;5152698;27;20681;-78
2022/09/12 11:53:07;;;;;;;6.30;5.53;;;;;;;22.46;66.25;94521.94;5148589;27;20199;-76